Time;durP1;ratioP1;P1;durP2;ratioP2;P2;SDS_P1;SDS_P2;PMS_P1;PMS_P2;Temp;Humidity;BMP_temperature;BMP_pressure;BME280_temperature;BME280_humidity;BME280_pressure;Samples;Min_cycle;Max_cycle;Signal;HPM_P1;HPM_P2
2022/01/04 00:00:39;;;;;;;19.73;14.77;;;;;;;5.88;63.63;94907.06;6169486;23;20200;-64
2022/01/04 00:03:06;;;;;;;18.17;14.23;;;;;;;5.75;64.11;94895.03;6195747;23;20182;-65
2022/01/04 00:05:32;;;;;;;18.07;14.07;;;;;;;5.79;63.63;94892.16;6169106;23;20241;-65
2022/01/04 00:07:57;;;;;;;19.23;13.57;;;;;;;5.81;63.53;94885.06;6169452;23;20214;-66
2022/01/04 00:10:26;;;;;;;17.37;13.80;;;;;;;5.85;63.54;94887.25;6196561;23;20202;-64
2022/01/04 00:15:37;;;;;;;17.60;13.33;;;;;;;5.50;64.66;94883.13;6194037;23;20205;-65
2022/01/04 00:18:03;;;;;;;18.20;13.13;;;;;;;5.43;65.28;94896.81;6195654;23;20182;-64
2022/01/04 00:20:29;;;;;;;16.90;12.60;;;;;;;5.19;65.75;94895.22;6169167;23;20198;-64
2022/01/04 00:22:54;;;;;;;17.37;13.33;;;;;;;5.16;65.38;94884.19;6194066;23;20206;-65
2022/01/04 00:25:20;;;;;;;17.03;13.23;;;;;;;4.86;65.85;94902.16;6169494;23;20217;-65
2022/01/04 00:27:45;;;;;;;14.77;12.43;;;;;;;4.95;65.97;94897.16;6170140;23;20213;-64
2022/01/04 00:30:12;;;;;;;19.90;13.90;;;;;;;4.94;66.25;94904.13;6196523;23;20174;-66
2022/01/04 00:32:38;;;;;;;18.07;13.57;;;;;;;4.90;66.24;94905.34;6168786;23;20202;-66
2022/01/04 00:35:03;;;;;;;16.63;14.27;;;;;;;4.98;66.22;94913.38;6169522;23;20234;-65
2022/01/04 00:37:29;;;;;;;19.63;13.13;;;;;;;5.07;66.07;94911.81;6168508;23;20194;-68
2022/01/04 00:39:54;;;;;;;14.93;12.47;;;;;;;5.11;65.52;94910.63;6194946;23;20240;-65
2022/01/04 00:42:20;;;;;;;16.23;13.73;;;;;;;5.12;65.66;94919.28;6168833;23;20208;-64
2022/01/04 00:44:45;;;;;;;16.07;13.80;;;;;;;5.04;65.94;94922.50;6170456;23;20204;-65
2022/01/04 00:47:11;;;;;;;16.17;13.47;;;;;;;4.95;65.92;94920.63;6169718;23;20205;-66
2022/01/04 00:49:37;;;;;;;16.40;13.97;;;;;;;4.82;66.50;94928.56;6169990;23;20193;-64
2022/01/04 00:52:03;;;;;;;16.00;13.70;;;;;;;4.80;66.67;94930.44;6194460;23;20205;-65
2022/01/04 00:54:28;;;;;;;19.33;13.10;;;;;;;4.79;66.78;94923.59;6168634;23;20182;-65
2022/01/04 00:56:54;;;;;;;18.70;13.40;;;;;;;4.90;66.29;94917.53;6170370;23;20197;-64
2022/01/04 00:59:19;;;;;;;16.37;12.67;;;;;;;4.95;65.91;94908.41;6169140;23;20198;-64
2022/01/04 01:01:45;;;;;;;15.73;12.70;;;;;;;4.95;65.60;94904.97;6195088;23;20201;-66
2022/01/04 01:04:11;;;;;;;16.87;13.97;;;;;;;4.90;66.03;94904.50;6195205;23;20268;-66
2022/01/04 01:06:37;;;;;;;15.47;12.50;;;;;;;4.79;65.88;94900.97;6169185;23;20194;-65
2022/01/04 01:09:04;;;;;;;15.93;12.30;;;;;;;4.70;66.55;94893.03;6194485;23;20194;-65
2022/01/04 01:11:29;;;;;;;17.23;12.67;;;;;;;4.67;66.65;94888.88;6194100;23;20213;-66
2022/01/04 01:13:55;;;;;;;15.43;13.33;;;;;;;4.59;66.66;94891.25;6168666;23;20201;-66
2022/01/04 01:16:21;;;;;;;16.53;13.37;;;;;;;4.54;66.99;94888.16;6168986;23;20209;-63
2022/01/04 01:18:46;;;;;;;15.60;13.50;;;;;;;4.50;67.10;94886.75;6168898;23;20260;-65
2022/01/04 01:21:12;;;;;;;16.43;14.23;;;;;;;4.30;67.76;94885.66;6169474;23;20246;-64
2022/01/04 01:23:38;;;;;;;19.57;14.93;;;;;;;4.40;67.43;94887.44;6169052;23;20206;-66
2022/01/04 01:26:05;;;;;;;16.53;14.03;;;;;;;4.37;67.63;94887.69;6168924;23;20209;-63
2022/01/04 01:28:32;;;;;;;18.37;13.37;;;;;;;4.42;67.10;94884.75;6194623;23;20206;-63
2022/01/04 01:30:57;;;;;;;18.30;13.60;;;;;;;4.39;67.15;94885.81;6168463;23;20205;-65
2022/01/04 01:33:24;;;;;;;20.80;13.83;;;;;;;4.24;67.34;94884.38;6194335;23;20182;-63
2022/01/04 01:35:49;;;;;;;19.23;13.83;;;;;;;4.08;67.53;94884.69;6195343;23;20229;-63
2022/01/04 01:38:16;;;;;;;19.83;13.43;;;;;;;4.05;67.64;94881.50;6195417;23;20206;-63
2022/01/04 01:40:43;;;;;;;18.47;13.47;;;;;;;4.09;67.92;94877.72;6169155;23;20212;-63
2022/01/04 01:43:09;;;;;;;16.67;12.90;;;;;;;4.19;67.80;94874.28;6195003;23;20205;-63
2022/01/04 01:45:36;;;;;;;16.67;12.73;;;;;;;4.34;66.95;94885.31;6194099;23;20185;-63
2022/01/04 01:48:02;;;;;;;17.10;14.03;;;;;;;4.15;67.97;94901.50;6169134;23;20188;-64
2022/01/04 01:50:27;;;;;;;17.53;13.30;;;;;;;4.16;67.89;94900.56;6168207;23;20194;-63
2022/01/04 01:52:54;;;;;;;16.37;13.07;;;;;;;4.10;68.47;94898.41;6192458;23;20194;-63
2022/01/04 01:55:22;;;;;;;14.53;11.80;;;;;;;4.29;67.57;94884.03;6191510;23;20202;-63
2022/01/04 01:57:49;;;;;;;18.27;13.47;;;;;;;4.48;66.71;94893.84;6168503;23;20202;-63
2022/01/04 02:00:17;;;;;;;15.87;12.70;;;;;;;4.38;66.77;94889.38;6194226;23;20361;-64
2022/01/04 02:02:43;;;;;;;17.33;12.93;;;;;;;4.14;67.21;94878.19;6167316;23;20198;-64
2022/01/04 02:05:09;;;;;;;14.10;12.27;;;;;;;4.30;66.97;94881.28;6193532;23;20190;-63
2022/01/04 02:07:36;;;;;;;20.90;12.90;;;;;;;4.40;66.55;94891.84;6167700;23;20223;-66
2022/01/04 02:10:05;;;;;;;18.97;12.70;;;;;;;4.20;67.26;94895.97;6168367;23;20362;-63
2022/01/04 02:12:37;;;;;;;15.67;12.43;;;;;;;4.30;66.58;94883.88;6169308;23;20201;-63
2022/01/04 02:15:06;;;;;;;16.97;13.23;;;;;;;4.30;66.85;94883.06;6194527;23;20174;-63
2022/01/04 02:17:31;;;;;;;16.80;12.70;;;;;;;4.17;66.75;94875.34;6168378;23;20216;-65
2022/01/04 02:19:59;;;;;;;16.20;12.70;;;;;;;4.18;66.80;94887.44;6167676;23;20202;-63
2022/01/04 02:22:27;;;;;;;17.33;12.10;;;;;;;4.07;66.96;94890.84;6194356;23;20193;-63
2022/01/04 02:24:52;;;;;;;15.67;12.77;;;;;;;4.19;66.68;94882.09;6192934;23;20198;-63
2022/01/04 02:27:18;;;;;;;16.73;12.43;;;;;;;4.09;66.66;94888.97;6193077;23;20198;-63
2022/01/04 02:29:45;;;;;;;17.57;11.83;;;;;;;4.17;66.67;94883.16;6193746;23;20189;-64
2022/01/04 02:32:11;;;;;;;16.77;12.67;;;;;;;4.17;66.34;94889.22;6193772;23;20200;-65
2022/01/04 02:34:37;;;;;;;17.27;12.47;;;;;;;4.01;67.20;94885.25;6194580;23;20233;-62
2022/01/04 02:37:03;;;;;;;16.83;11.67;;;;;;;4.04;67.22;94882.47;6167599;23;20206;-61
2022/01/04 02:39:30;;;;;;;16.03;12.03;;;;;;;3.81;68.15;94882.38;6168352;23;20186;-64
2022/01/04 02:41:56;;;;;;;14.83;11.93;;;;;;;3.84;67.88;94874.34;6168522;23;20192;-66
2022/01/04 02:44:21;;;;;;;17.37;12.73;;;;;;;3.90;67.66;94879.13;6193485;23;20198;-64
2022/01/04 02:46:47;;;;;;;14.77;11.53;;;;;;;3.97;66.98;94867.28;6168141;23;20198;-64
2022/01/04 02:49:12;;;;;;;14.90;12.30;;;;;;;3.98;66.86;94874.16;6168570;23;20205;-67
2022/01/04 02:51:38;;;;;;;18.50;12.20;;;;;;;3.84;67.39;94871.75;6194566;23;20204;-64
2022/01/04 02:54:04;;;;;;;15.27;12.30;;;;;;;4.02;67.47;94876.53;6194704;23;20177;-64
2022/01/04 02:56:30;;;;;;;19.07;13.27;;;;;;;3.94;66.88;94869.31;6167527;23;20245;-64
2022/01/04 02:59:02;;;;;;;15.90;13.63;;;;;;;3.75;67.39;94865.47;6168180;23;20202;-66
2022/01/04 03:01:28;;;;;;;17.17;12.70;;;;;;;3.61;68.09;94864.81;6168172;23;20202;-63
2022/01/04 03:03:53;;;;;;;16.17;12.93;;;;;;;3.65;68.13;94864.50;6168062;23;20221;-65
2022/01/04 03:06:19;;;;;;;16.93;12.87;;;;;;;3.50;68.33;94860.41;6193845;23;20186;-65
2022/01/04 03:08:44;;;;;;;17.93;13.43;;;;;;;3.59;68.11;94858.94;6194106;23;20176;-65
2022/01/04 03:11:10;;;;;;;14.77;13.17;;;;;;;3.70;68.01;94857.19;6168118;23;20201;-65
2022/01/04 03:13:35;;;;;;;16.73;13.73;;;;;;;3.52;68.07;94853.34;6167833;23;20202;-67
2022/01/04 03:16:01;;;;;;;15.87;12.97;;;;;;;3.41;68.37;94861.91;6168516;23;20209;-65
2022/01/04 03:18:26;;;;;;;20.43;13.07;;;;;;;3.34;68.39;94865.91;6168360;23;20178;-64
2022/01/04 03:20:51;;;;;;;21.57;12.80;;;;;;;3.28;68.45;94866.34;6168674;23;20178;-68
2022/01/04 03:23:17;;;;;;;16.97;12.97;;;;;;;3.38;68.37;94867.34;6194202;23;20194;-68
2022/01/04 03:25:42;;;;;;;16.63;11.10;;;;;;;3.56;68.26;94866.97;6194755;23;20198;-66
2022/01/04 03:28:08;;;;;;;13.73;11.37;;;;;;;3.66;67.45;94860.97;6167425;23;20193;-65
2022/01/04 03:30:34;;;;;;;15.93;12.27;;;;;;;3.72;67.05;94859.69;6194252;23;20174;-68
2022/01/04 03:33:00;;;;;;;14.40;11.73;;;;;;;3.60;67.43;94855.38;6166864;23;20249;-64
2022/01/04 03:35:26;;;;;;;16.10;12.57;;;;;;;3.50;68.28;94868.22;6193138;23;20203;-65
2022/01/04 03:37:52;;;;;;;16.03;11.77;;;;;;;3.36;68.03;94868.41;6168600;23;20249;-65
2022/01/04 03:40:18;;;;;;;15.33;12.30;;;;;;;3.31;68.84;94872.19;6168412;23;20194;-69
2022/01/04 03:42:44;;;;;;;15.03;10.77;;;;;;;3.30;68.54;94875.69;6194602;23;20202;-67
2022/01/04 03:45:09;;;;;;;13.40;10.43;;;;;;;3.39;68.07;94879.38;6194298;23;20241;-65
2022/01/04 03:47:35;;;;;;;15.50;10.67;;;;;;;3.52;67.91;94884.53;6167847;23;20194;-65
2022/01/04 03:50:01;;;;;;;16.53;12.83;;;;;;;3.65;66.85;94876.66;6167760;23;20198;-68
2022/01/04 03:52:28;;;;;;;15.37;12.33;;;;;;;3.56;66.97;94874.75;6168108;23;20351;-64
2022/01/04 03:54:53;;;;;;;15.50;12.20;;;;;;;3.49;67.51;94875.19;6167659;23;20206;-65
2022/01/04 03:57:19;;;;;;;15.77;12.57;;;;;;;3.59;68.27;94884.94;6167483;23;20213;-66
2022/01/04 03:59:44;;;;;;;13.83;11.70;;;;;;;3.35;68.28;94879.75;6169822;23;20190;-67
2022/01/04 04:02:10;;;;;;;17.77;14.60;;;;;;;3.22;68.44;94867.63;6169492;23;20201;-66
2022/01/04 04:04:35;;;;;;;17.27;13.67;;;;;;;3.09;68.19;94875.47;6194174;23;20198;-68
2022/01/04 04:07:01;;;;;;;17.20;13.33;;;;;;;2.88;69.03;94862.25;6168627;23;20260;-68
2022/01/04 04:09:26;;;;;;;19.60;14.97;;;;;;;3.01;68.75;94867.41;6168533;23;20182;-67
2022/01/04 04:11:52;;;;;;;20.60;13.83;;;;;;;2.88;69.25;94877.81;6169451;23;20237;-63
2022/01/04 04:14:17;;;;;;;15.47;13.33;;;;;;;2.89;69.14;94876.09;6168818;23;20216;-64
2022/01/04 04:16:43;;;;;;;15.57;12.07;;;;;;;2.84;69.29;94878.16;6170110;23;20216;-64
2022/01/04 04:19:08;;;;;;;15.27;12.87;;;;;;;2.79;69.80;94875.06;6169346;23;20213;-68
2022/01/04 04:21:34;;;;;;;18.43;12.23;;;;;;;2.77;69.79;94876.94;6169221;23;20266;-68
2022/01/04 04:23:59;;;;;;;12.93;11.23;;;;;;;2.87;69.71;94877.94;6169512;23;20174;-65
2022/01/04 04:26:25;;;;;;;13.83;10.37;;;;;;;2.88;69.54;94870.03;6168587;23;20201;-68
2022/01/04 04:28:50;;;;;;;12.20;9.93;;;;;;;2.85;69.58;94878.03;6168647;23;20209;-64
2022/01/04 04:31:16;;;;;;;12.93;9.80;;;;;;;3.00;69.20;94883.94;6168993;23;20220;-63
2022/01/04 04:33:42;;;;;;;11.77;9.27;;;;;;;2.92;69.16;94875.03;6169558;23;20236;-65
2022/01/04 04:36:10;;;;;;;12.70;9.17;;;;;;;2.90;68.77;94879.50;6195442;23;20190;-68
2022/01/04 04:38:36;;;;;;;11.53;9.47;;;;;;;2.86;69.15;94882.31;6194190;23;20194;-67
2022/01/04 04:41:02;;;;;;;13.17;10.10;;;;;;;3.01;68.66;94905.53;6167284;23;20201;-65
2022/01/04 04:43:27;;;;;;;12.10;10.80;;;;;;;3.02;68.88;94910.63;6194417;23;20198;-63
2022/01/04 04:45:53;;;;;;;12.67;10.40;;;;;;;2.96;68.81;94905.84;6168357;23;20205;-66
2022/01/04 04:48:18;;;;;;;14.07;10.63;;;;;;;2.83;68.68;94900.72;6169419;23;20181;-66
2022/01/04 04:50:44;;;;;;;12.17;9.87;;;;;;;2.81;69.23;94902.59;6170135;23;20182;-64
2022/01/04 04:53:09;;;;;;;12.80;10.20;;;;;;;2.91;69.08;94905.34;6170401;23;20206;-64
2022/01/04 04:55:35;;;;;;;16.13;10.67;;;;;;;2.86;68.98;94897.03;6169312;23;20194;-65
2022/01/04 04:58:00;;;;;;;18.23;11.23;;;;;;;2.96;68.70;94895.47;6195281;23;20202;-63
2022/01/04 05:00:26;;;;;;;12.67;10.03;;;;;;;2.97;68.70;94904.94;6168777;23;20193;-66
2022/01/04 05:02:52;;;;;;;12.63;11.20;;;;;;;2.92;68.75;94904.44;6193807;23;20244;-66
2022/01/04 05:05:17;;;;;;;14.87;10.73;;;;;;;2.97;68.53;94898.91;6168167;23;20249;-67
2022/01/04 05:07:43;;;;;;;14.97;10.57;;;;;;;2.80;69.10;94897.47;6169354;23;20217;-64
2022/01/04 05:10:09;;;;;;;15.27;12.13;;;;;;;2.74;69.01;94906.53;6169563;23;20253;-65
2022/01/04 05:12:35;;;;;;;13.10;10.97;;;;;;;2.74;69.06;94898.75;6168782;23;20186;-68
2022/01/04 05:15:05;;;;;;;11.77;9.90;;;;;;;2.73;69.41;94909.25;6193123;23;20192;-66
2022/01/04 05:17:31;;;;;;;13.23;10.93;;;;;;;2.65;69.52;94897.63;6167891;23;20253;-65
2022/01/04 05:19:57;;;;;;;14.87;11.73;;;;;;;2.55;69.38;94899.19;6194005;23;20213;-66
2022/01/04 05:22:23;;;;;;;14.17;11.50;;;;;;;2.53;69.67;94903.66;6168483;23;20202;-65
2022/01/04 05:24:48;;;;;;;18.80;12.07;;;;;;;2.64;69.24;94900.31;6194183;23;20257;-65
2022/01/04 05:27:14;;;;;;;13.40;10.70;;;;;;;2.60;69.54;94898.88;6167929;23;20190;-65
2022/01/04 05:29:39;;;;;;;14.03;10.60;;;;;;;2.54;69.56;94889.75;6168639;23;20210;-63
2022/01/04 05:32:06;;;;;;;17.93;12.43;;;;;;;2.55;70.01;94888.81;6193571;23;20329;-64
2022/01/04 05:34:31;;;;;;;15.10;12.30;;;;;;;2.69;69.81;94889.63;6191888;23;20268;-64
2022/01/04 05:36:57;;;;;;;14.40;11.23;;;;;;;2.78;69.20;94891.56;6168552;23;20197;-69
2022/01/04 05:39:22;;;;;;;21.50;13.17;;;;;;;2.64;69.71;94887.34;6192967;23;20181;-64
2022/01/04 05:41:48;;;;;;;18.33;14.07;;;;;;;2.51;70.05;94882.16;6168455;23;20224;-66
2022/01/04 05:44:13;;;;;;;22.23;14.43;;;;;;;2.54;70.12;94891.50;6167740;23;20194;-65
2022/01/04 05:46:39;;;;;;;18.60;14.60;;;;;;;2.57;69.89;94896.50;6166532;23;20202;-66
2022/01/04 05:49:04;;;;;;;21.07;15.50;;;;;;;2.60;70.00;94891.09;6167717;23;20202;-64
2022/01/04 05:51:30;;;;;;;17.20;14.23;;;;;;;2.64;69.75;94877.78;6166601;23;20190;-63
2022/01/04 05:53:55;;;;;;;15.37;12.13;;;;;;;2.54;69.26;94884.56;6166812;23;20229;-63
2022/01/04 05:56:21;;;;;;;16.67;12.87;;;;;;;2.66;69.55;94880.28;6167356;23;20209;-63
2022/01/04 05:58:46;;;;;;;21.10;15.73;;;;;;;2.81;69.05;94874.03;6167357;23;20198;-65
2022/01/04 06:01:12;;;;;;;21.97;15.10;;;;;;;2.84;68.62;94873.81;6167582;23;20206;-65
2022/01/04 06:03:37;;;;;;;18.70;15.43;;;;;;;2.77;68.82;94875.16;6166611;23;20225;-64
2022/01/04 06:06:03;;;;;;;21.63;17.37;;;;;;;2.74;68.96;94888.38;6168261;23;20222;-66
2022/01/04 06:08:34;;;;;;;20.73;17.07;;;;;;;2.76;68.94;94885.66;6193396;23;20198;-66
2022/01/04 06:11:00;;;;;;;26.10;16.33;;;;;;;2.75;69.36;94889.19;6167882;23;20204;-65
2022/01/04 06:16:15;;;;;;;20.00;14.27;;;;;;;2.77;69.45;94887.31;6103667;23;20252;-66
2022/01/04 06:18:42;;;;;;;20.37;14.80;;;;;;;2.92;68.90;94885.41;6103438;23;20251;-66
2022/01/04 06:21:08;;;;;;;21.67;15.33;;;;;;;2.79;69.31;94890.66;6103980;23;20243;-68
2022/01/04 06:23:34;;;;;;;23.30;16.07;;;;;;;2.81;70.10;94886.19;6102734;23;20208;-66
2022/01/04 06:25:59;;;;;;;20.80;15.17;;;;;;;2.91;69.75;94889.75;6102916;23;20213;-67
2022/01/04 06:28:25;;;;;;;22.87;15.50;;;;;;;2.95;69.24;94888.63;6101996;23;20208;-64
2022/01/04 06:30:51;;;;;;;29.53;17.13;;;;;;;2.99;69.21;94884.03;6103152;23;20219;-66
2022/01/04 06:33:20;;;;;;;20.33;15.83;;;;;;;3.23;68.88;94881.44;6079115;23;20226;-65
2022/01/04 06:35:50;;;;;;;22.97;15.53;;;;;;;3.16;68.60;94880.25;6103304;23;20200;-65
2022/01/04 06:38:16;;;;;;;20.20;17.07;;;;;;;3.07;68.87;94879.13;6103273;23;20321;-63
2022/01/04 06:40:42;;;;;;;22.47;17.07;;;;;;;3.22;69.13;94879.81;6103707;23;20270;-66
2022/01/04 06:43:08;;;;;;;28.33;16.37;;;;;;;3.22;68.66;94872.81;6102473;23;20235;-64
2022/01/04 06:45:33;;;;;;;28.20;17.50;;;;;;;3.35;68.29;94872.78;6078082;23;20239;-68
2022/01/04 06:47:59;;;;;;;22.23;15.70;;;;;;;3.45;68.29;94883.34;6103546;23;20191;-65
2022/01/04 06:50:25;;;;;;;21.97;13.73;;;;;;;3.47;67.74;94873.63;6101544;23;20467;-64
2022/01/04 06:52:50;;;;;;;21.53;13.47;;;;;;;3.49;67.50;94875.19;6105233;23;20216;-65
2022/01/04 06:55:16;;;;;;;18.00;13.27;;;;;;;3.43;67.83;94880.84;6193904;23;20279;-65
2022/01/04 06:57:42;;;;;;;20.10;13.17;;;;;;;3.33;67.82;94869.44;6193376;23;20199;-65
2022/01/04 07:00:09;;;;;;;22.30;14.37;;;;;;;3.72;67.09;94870.09;6193696;23;20188;-64
2022/01/04 07:02:35;;;;;;;19.60;14.93;;;;;;;3.65;67.44;94879.25;6167708;23;20193;-64
2022/01/04 07:05:01;;;;;;;19.67;14.87;;;;;;;3.51;68.25;94883.72;6193009;23;20229;-64
2022/01/04 07:07:27;;;;;;;18.73;15.17;;;;;;;3.56;68.05;94885.97;6168102;23;20217;-65
2022/01/04 07:09:52;;;;;;;22.80;16.67;;;;;;;3.64;67.97;94891.44;6167450;23;20205;-63
2022/01/04 07:12:18;;;;;;;26.07;15.50;;;;;;;3.64;67.97;94893.22;6167547;23;20174;-68
2022/01/04 07:14:43;;;;;;;20.43;16.70;;;;;;;3.69;67.92;94888.50;6193934;23;20209;-64
2022/01/04 07:17:09;;;;;;;28.37;17.23;;;;;;;4.00;67.29;94891.41;6166448;23;20268;-64
2022/01/04 07:19:34;;;;;;;27.90;19.03;;;;;;;4.11;66.04;94879.25;6192316;23;20213;-66
2022/01/04 07:22:00;;;;;;;28.80;20.53;;;;;;;3.86;66.57;94882.88;6191758;23;20217;-65
2022/01/04 07:24:25;;;;;;;27.70;20.07;;;;;;;3.64;67.68;94893.22;6190803;23;20233;-64
2022/01/04 07:26:51;;;;;;;27.93;20.47;;;;;;;3.76;67.69;94885.31;6166374;23;20170;-64
2022/01/04 07:29:17;;;;;;;26.47;20.30;;;;;;;3.94;67.74;94888.34;6165952;23;20209;-64
2022/01/04 07:31:42;;;;;;;30.33;20.07;;;;;;;3.84;67.72;94876.94;6165244;23;20213;-64
2022/01/04 07:34:08;;;;;;;30.60;23.17;;;;;;;4.09;67.16;94878.56;6193734;23;20194;-65
2022/01/04 07:36:33;;;;;;;32.87;23.93;;;;;;;4.23;66.71;94877.50;6167806;23;20249;-65
2022/01/04 07:38:59;;;;;;;33.80;25.37;;;;;;;4.36;66.22;94878.22;6168860;23;20189;-66
2022/01/04 07:41:25;;;;;;;35.33;27.03;;;;;;;4.20;66.68;94881.19;6192920;23;20241;-64
2022/01/04 07:43:50;;;;;;;36.27;27.90;;;;;;;4.37;66.84;94881.66;6168378;23;20209;-69
2022/01/04 07:46:16;;;;;;;42.10;30.53;;;;;;;4.55;65.93;94875.03;6168854;23;20224;-63
2022/01/04 07:48:41;;;;;;;46.77;33.57;;;;;;;4.55;65.96;94866.41;6169877;23;20189;-65
2022/01/04 07:51:07;;;;;;;44.70;34.97;;;;;;;4.54;66.38;94854.31;6196098;23;20178;-68
2022/01/04 07:53:33;;;;;;;45.20;34.83;;;;;;;4.63;65.76;94866.63;6169420;23;20217;-64
2022/01/04 07:55:58;;;;;;;48.37;35.87;;;;;;;4.72;65.38;94860.69;6193994;23;20248;-64
2022/01/04 07:58:25;;;;;;;48.63;34.10;;;;;;;4.75;65.10;94873.47;6168594;23;20209;-64
2022/01/04 08:00:51;;;;;;;44.87;33.17;;;;;;;4.77;65.02;94868.16;6168967;23;20198;-65
2022/01/04 08:03:17;;;;;;;44.37;31.67;;;;;;;4.91;64.63;94870.50;6169743;23;20186;-65
2022/01/04 08:05:42;;;;;;;40.20;30.77;;;;;;;5.02;64.12;94873.06;6193301;23;20204;-63
2022/01/04 08:08:08;;;;;;;36.30;29.43;;;;;;;5.03;63.44;94859.13;6167805;23;20205;-64
2022/01/04 08:10:35;;;;;;;44.13;32.87;;;;;;;5.05;63.54;94874.63;6194390;23;20205;-64
2022/01/04 08:13:00;;;;;;;38.70;29.73;;;;;;;5.04;63.38;94868.59;6168967;23;20194;-65
2022/01/04 08:15:27;;;;;;;34.93;28.67;;;;;;;5.17;63.09;94865.00;6194287;23;20182;-65
2022/01/04 08:17:53;;;;;;;39.37;31.30;;;;;;;5.16;63.92;94869.41;6168974;23;20182;-64
2022/01/04 08:20:19;;;;;;;38.07;31.33;;;;;;;5.38;63.98;94872.91;6169327;23;20198;-65
2022/01/04 08:22:44;;;;;;;42.93;32.40;;;;;;;5.56;63.16;94870.56;6169884;23;20209;-65
2022/01/04 08:25:11;;;;;;;41.13;32.13;;;;;;;5.39;62.60;94869.31;6168902;23;20202;-65
2022/01/04 08:27:38;;;;;;;37.20;31.17;;;;;;;5.38;62.89;94862.47;6168513;23;20215;-66
2022/01/04 08:30:06;;;;;;;40.40;31.13;;;;;;;5.70;62.39;94868.50;6195162;23;20192;-64
2022/01/04 08:32:32;;;;;;;44.97;32.77;;;;;;;5.77;61.80;94862.75;6193148;23;20205;-65
2022/01/04 08:34:57;;;;;;;38.90;30.60;;;;;;;5.64;61.99;94862.94;6168898;23;20201;-66
2022/01/04 08:37:23;;;;;;;38.73;28.70;;;;;;;5.63;61.58;94861.28;6168667;23;20198;-64
2022/01/04 08:39:48;;;;;;;28.60;24.20;;;;;;;5.47;61.54;94854.72;6169983;23;20209;-66
2022/01/04 08:42:14;;;;;;;35.73;26.30;;;;;;;5.31;61.99;94855.13;6195686;23;20174;-66
2022/01/04 08:44:40;;;;;;;32.47;26.53;;;;;;;5.62;61.47;94849.22;6168182;23;20232;-67
2022/01/04 08:47:07;;;;;;;28.40;22.00;;;;;;;5.57;60.96;94854.78;6168563;23;20208;-66
2022/01/04 08:49:34;;;;;;;21.77;18.43;;;;;;;5.69;60.29;94853.81;6169030;23;20198;-65
2022/01/04 08:52:00;;;;;;;31.67;24.80;;;;;;;5.89;60.70;94848.72;6193542;23;20233;-66
2022/01/04 08:54:26;;;;;;;36.87;30.33;;;;;;;5.97;60.34;94841.09;6194855;23;20502;-65
2022/01/04 08:56:54;;;;;;;36.33;30.67;;;;;;;6.10;60.52;94846.13;6169518;23;20198;-63
2022/01/04 08:59:19;;;;;;;40.80;33.13;;;;;;;6.23;60.10;94853.72;6169423;23;20213;-66
2022/01/04 09:01:45;;;;;;;46.17;37.33;;;;;;;6.18;60.45;94847.13;6194477;23;20209;-63
2022/01/04 09:04:10;;;;;;;45.53;35.87;;;;;;;6.12;60.72;94844.19;6166925;23;20257;-63
2022/01/04 09:06:36;;;;;;;52.47;36.53;;;;;;;6.15;60.83;94842.19;6167913;23;20209;-64
2022/01/04 09:09:03;;;;;;;46.73;36.10;;;;;;;6.25;60.38;94846.59;6167945;23;20201;-64
2022/01/04 09:11:28;;;;;;;44.40;35.03;;;;;;;6.02;60.72;94831.09;6168226;23;20202;-64
2022/01/04 09:14:06;;;;;;;40.63;32.33;;;;;;;6.06;60.39;94836.88;6194168;23;20202;-64
2022/01/04 09:19:16;;;;;;;40.40;32.87;;;;;;;6.09;60.18;94828.78;6193178;23;20242;-65
2022/01/04 09:21:41;;;;;;;41.00;31.37;;;;;;;6.05;60.19;94820.41;6167298;23;20194;-66
2022/01/04 09:24:07;;;;;;;36.50;29.70;;;;;;;5.92;60.70;94812.75;6168310;23;20232;-68
2022/01/04 09:26:33;;;;;;;32.63;27.60;;;;;;;6.12;60.10;94812.88;6167462;23;20190;-66
2022/01/04 09:28:58;;;;;;;38.03;30.63;;;;;;;6.29;59.74;94801.00;6193767;23;20193;-66
2022/01/04 09:31:27;;;;;;;43.73;34.37;;;;;;;6.45;59.52;94793.50;6168024;23;20201;-65
2022/01/04 09:33:54;;;;;;;50.63;34.00;;;;;;;6.42;59.19;94779.91;6194645;23;20220;-64
2022/01/04 09:36:20;;;;;;;39.83;33.03;;;;;;;6.57;59.30;94784.59;6192910;23;20262;-65
2022/01/04 09:38:46;;;;;;;39.00;30.90;;;;;;;6.66;58.90;94777.78;6168211;23;20186;-67
2022/01/04 09:41:11;;;;;;;37.97;30.10;;;;;;;6.58;58.76;94757.53;6167647;23;20249;-62
2022/01/04 09:43:37;;;;;;;34.43;27.73;;;;;;;6.72;58.66;94763.34;6167181;23;20255;-63
2022/01/04 09:46:03;;;;;;;36.70;27.33;;;;;;;6.81;58.83;94767.75;6193499;23;20479;-65
2022/01/04 09:48:28;;;;;;;33.20;26.93;;;;;;;6.90;57.77;94756.50;6191616;23;20190;-65
2022/01/04 09:50:59;;;;;;;30.80;25.20;;;;;;;6.99;57.42;94760.09;6168425;23;20186;-65
2022/01/04 09:53:25;;;;;;;35.67;26.40;;;;;;;7.09;57.15;94747.84;6193100;23;20209;-63
2022/01/04 09:55:53;;;;;;;30.83;25.10;;;;;;;7.24;57.03;94750.84;6192641;23;20202;-67
2022/01/04 09:58:20;;;;;;;30.67;23.90;;;;;;;7.50;56.48;94743.28;6165865;23;20221;-64
2022/01/04 10:00:47;;;;;;;36.17;25.73;;;;;;;7.44;56.07;94734.19;6165844;23;20190;-66
2022/01/04 10:03:25;;;;;;;34.30;25.73;;;;;;;7.59;56.23;94732.00;6194067;23;20232;-63
2022/01/04 10:06:04;;;;;;;35.90;27.90;;;;;;;7.59;55.75;94723.28;6192739;23;20205;-63
2022/01/04 10:08:30;;;;;;;36.67;27.63;;;;;;;7.53;55.73;94723.84;6167265;23;20261;-64
2022/01/04 10:11:10;;;;;;;35.17;25.37;;;;;;;7.64;55.62;94723.69;6166812;23;20269;-68
2022/01/04 10:13:36;;;;;;;36.60;25.33;;;;;;;7.83;55.11;94714.97;6192459;23;20208;-65
2022/01/04 10:16:13;;;;;;;34.57;27.37;;;;;;;7.90;55.01;94710.81;6165962;23;20210;-64
2022/01/04 10:18:38;;;;;;;32.73;26.40;;;;;;;7.94;54.87;94702.53;6167355;23;20249;-65
2022/01/04 10:21:04;;;;;;;35.17;26.87;;;;;;;8.17;54.52;94697.75;6167180;23;20201;-65
2022/01/04 10:23:30;;;;;;;33.53;26.60;;;;;;;8.32;54.06;94690.25;6167176;23;20209;-66
2022/01/04 10:26:04;;;;;;;30.37;24.63;;;;;;;8.35;53.70;94691.75;6191754;23;20209;-65
2022/01/04 10:28:31;;;;;;;28.57;24.80;;;;;;;8.22;53.61;94676.38;6167521;23;20201;-65
2022/01/04 10:31:05;;;;;;;28.53;23.17;;;;;;;8.16;53.53;94685.63;6165881;23;20209;-65
2022/01/04 10:33:33;;;;;;;29.43;24.83;;;;;;;8.32;53.47;94674.53;6191871;23;20180;-66
2022/01/04 10:36:00;;;;;;;27.73;23.20;;;;;;;8.66;52.55;94668.72;6167968;23;20194;-67
2022/01/04 10:38:32;;;;;;;31.40;22.60;;;;;;;8.85;51.62;94667.75;6191561;23;20203;-65
2022/01/04 10:41:04;;;;;;;27.67;21.33;;;;;;;8.96;51.84;94666.69;6192091;23;20217;-67
2022/01/04 10:43:43;;;;;;;67.43;25.13;;;;;;;9.29;50.64;94662.53;6193075;23;20237;-68
2022/01/04 10:46:11;;;;;;;32.73;20.40;;;;;;;9.18;50.63;94658.34;6166089;23;20201;-68
2022/01/04 10:48:41;;;;;;;28.80;21.90;;;;;;;9.27;51.10;94660.06;6191228;23;20219;-68
2022/01/04 10:51:09;;;;;;;28.77;21.83;;;;;;;9.38;50.68;94661.63;6166207;23;20186;-69
2022/01/04 10:53:45;;;;;;;31.10;22.90;;;;;;;9.30;50.97;94652.84;6166502;23;20205;-67
2022/01/04 10:56:14;;;;;;;28.77;22.47;;;;;;;9.62;50.35;94654.88;6165430;23;20198;-65
2022/01/04 10:58:48;;;;;;;21.00;17.37;;;;;;;10.05;48.66;94651.34;6166427;23;20224;-67
2022/01/04 11:01:22;;;;;;;25.30;18.80;;;;;;;10.22;47.99;94648.78;6167370;23;20224;-67
2022/01/04 11:03:54;;;;;;;20.97;17.57;;;;;;;10.15;48.17;94644.16;6192849;23;20197;-65
2022/01/04 11:06:22;;;;;;;21.73;16.87;;;;;;;10.39;48.14;94645.25;6192200;23;20264;-66
2022/01/04 11:08:48;;;;;;;22.67;16.77;;;;;;;10.60;47.52;94640.38;6169189;23;20201;-65
2022/01/04 11:11:14;;;;;;;19.30;16.30;;;;;;;10.77;47.18;94643.88;6168346;23;20201;-65
2022/01/04 11:13:39;;;;;;;16.83;14.50;;;;;;;10.87;47.15;94650.78;6192918;23;20260;-64
2022/01/04 11:16:06;;;;;;;19.00;14.60;;;;;;;10.99;46.32;94645.06;6167326;23;20205;-63
2022/01/04 11:18:34;;;;;;;19.20;14.40;;;;;;;11.03;46.04;94633.19;6195583;23;20184;-64
2022/01/04 11:21:00;;;;;;;19.43;16.03;;;;;;;11.24;45.80;94624.00;6196410;23;20205;-66
2022/01/04 11:23:29;;;;;;;19.97;15.27;;;;;;;11.20;45.96;94627.94;6168754;23;20194;-63
2022/01/04 11:25:56;;;;;;;18.37;15.30;;;;;;;11.47;45.19;94627.59;6167952;23;20190;-67
2022/01/04 11:28:22;;;;;;;20.43;14.90;;;;;;;11.41;45.15;94630.06;6169295;23;20253;-65